createdAt,value
2022-12-18T00:01:32.274Z,5.20
2022-12-18T00:04:00.578Z,5.13
2022-12-18T00:06:30.499Z,5.05
2022-12-18T00:08:59.440Z,4.70
2022-12-18T00:11:29.237Z,11.98
2022-12-18T00:14:00.068Z,7.50
2022-12-18T00:16:29.011Z,6.00
2022-12-18T00:19:01.323Z,5.63
2022-12-18T00:21:29.958Z,7.35
2022-12-18T00:23:58.178Z,5.70
2022-12-18T00:26:27.683Z,10.43
2022-12-18T00:28:56.690Z,7.05
2022-12-18T00:31:26.942Z,9.82
2022-12-18T00:33:56.063Z,5.85
2022-12-18T00:36:25.347Z,6.80
2022-12-18T00:38:53.546Z,6.10
2022-12-18T00:41:35.283Z,7.57
2022-12-18T00:44:03.216Z,8.27
2022-12-18T00:46:32.628Z,9.20
2022-12-18T00:49:00.837Z,5.30
2022-12-18T00:51:28.984Z,5.10
2022-12-18T00:53:57.055Z,6.38
2022-12-18T00:56:25.139Z,4.60
2022-12-18T00:58:53.051Z,4.93
2022-12-18T01:01:21.512Z,6.45
2022-12-18T01:03:50.902Z,5.47
2022-12-18T01:06:18.862Z,6.95
2022-12-18T01:08:46.896Z,6.15
2022-12-18T01:11:16.931Z,7.82
2022-12-18T01:13:45.074Z,7.60
2022-12-18T01:16:14.256Z,9.13
2022-12-18T01:18:42.212Z,15.10
2022-12-18T01:21:12.800Z,8.48
2022-12-18T01:23:40.987Z,9.85
2022-12-18T01:26:10.415Z,8.38
2022-12-18T01:28:38.349Z,6.30
2022-12-18T01:31:15.482Z,6.93
2022-12-18T01:33:43.623Z,7.53
2022-12-18T01:36:18.824Z,8.57
2022-12-18T01:38:46.977Z,6.80
2022-12-18T01:41:15.348Z,8.82
2022-12-18T01:43:48.055Z,7.88
2022-12-18T01:46:16.106Z,9.50
2022-12-18T01:48:45.145Z,8.45
2022-12-18T01:51:13.724Z,7.35
2022-12-18T01:53:43.883Z,11.43
2022-12-18T01:56:15.272Z,8.90
2022-12-18T01:58:49.187Z,13.68
2022-12-18T02:01:17.528Z,20.17
2022-12-18T02:03:45.864Z,18.05
2022-12-18T02:06:18.054Z,12.15
2022-12-18T02:09:00.247Z,10.80
2022-12-18T02:11:39.466Z,12.85
2022-12-18T02:14:20.779Z,8.18
2022-12-18T02:16:54.620Z,11.63
2022-12-18T02:19:47.529Z,8.80
2022-12-18T02:22:26.531Z,8.82
2022-12-18T02:25:03.531Z,14.75
2022-12-18T02:27:34.712Z,15.68
2022-12-18T02:30:03.709Z,11.88
2022-12-18T02:32:37.535Z,28.65
2022-12-18T02:35:07.668Z,16.02
2022-12-18T02:37:36.384Z,17.40
2022-12-18T02:40:06.231Z,23.30
2022-12-18T02:42:35.534Z,24.20
2022-12-18T02:45:03.467Z,25.50
2022-12-18T02:47:33.785Z,20.02
2022-12-18T02:50:07.672Z,19.15
2022-12-18T02:52:41.428Z,11.32
2022-12-18T02:55:18.148Z,13.25
2022-12-18T02:57:52.258Z,14.52
2022-12-18T03:00:22.488Z,14.65
2022-12-18T03:02:56.190Z,15.95
2022-12-18T03:05:28.507Z,71.10
2022-12-18T03:08:00.110Z,29.00
2022-12-18T03:10:31.146Z,16.17
2022-12-18T03:13:04.957Z,17.58
2022-12-18T03:15:35.992Z,17.27
2022-12-18T03:18:06.583Z,12.27
2022-12-18T03:20:37.093Z,24.00
2022-12-18T03:23:10.035Z,13.57
2022-12-18T03:25:41.279Z,14.23
2022-12-18T03:28:12.409Z,26.13
2022-12-18T03:30:42.031Z,23.40
2022-12-18T03:33:13.007Z,20.92
2022-12-18T03:35:42.664Z,13.90
2022-12-18T03:38:11.757Z,23.83
2022-12-18T03:40:47.873Z,48.40
2022-12-18T03:43:22.196Z,74.22
2022-12-18T03:45:53.759Z,69.07
2022-12-18T03:48:26.494Z,33.35
2022-12-18T03:50:58.562Z,30.50
2022-12-18T03:53:33.834Z,16.48
2022-12-18T03:56:03.424Z,12.88
2022-12-18T03:58:34.342Z,24.92
2022-12-18T04:01:04.507Z,25.15
2022-12-18T04:03:34.050Z,28.45
2022-12-18T04:06:03.077Z,25.13
2022-12-18T04:08:31.579Z,15.90
2022-12-18T04:10:59.476Z,23.65
2022-12-18T04:13:30.535Z,19.55
2022-12-18T04:16:00.143Z,17.05
2022-12-18T04:18:28.139Z,9.30
2022-12-18T04:20:56.403Z,11.27
2022-12-18T04:23:24.472Z,8.90
2022-12-18T04:25:52.375Z,9.18
2022-12-18T04:28:20.382Z,14.25
2022-12-18T04:30:51.929Z,5.95
2022-12-18T04:33:21.478Z,15.30
2022-12-18T04:35:49.384Z,12.63
2022-12-18T04:38:17.319Z,5.82
2022-12-18T04:40:45.559Z,10.52
2022-12-18T04:43:13.491Z,10.15
2022-12-18T04:45:41.527Z,8.55
2022-12-18T04:48:09.439Z,19.65
2022-12-18T04:50:39.292Z,9.50
2022-12-18T04:53:07.511Z,6.25
2022-12-18T04:55:35.441Z,12.07
2022-12-18T04:58:03.327Z,4.70
2022-12-18T05:00:31.224Z,15.95
2022-12-18T05:02:59.145Z,11.10
2022-12-18T05:05:27.071Z,7.15
2022-12-18T05:07:56.363Z,7.47
2022-12-18T05:10:24.271Z,9.50
2022-12-18T05:13:01.243Z,7.75
2022-12-18T05:15:31.079Z,11.77
2022-12-18T05:17:59.240Z,8.55
2022-12-18T05:20:28.044Z,10.75
2022-12-18T05:22:57.884Z,7.82
2022-12-18T05:25:26.238Z,7.85
2022-12-18T05:27:54.127Z,9.02
2022-12-18T05:30:22.104Z,6.35
2022-12-18T05:32:49.979Z,5.00
2022-12-18T05:35:17.983Z,6.63
2022-12-18T05:37:45.894Z,7.03
2022-12-18T05:40:15.247Z,13.10
2022-12-18T05:42:43.184Z,7.75
2022-12-18T05:45:11.590Z,4.60
2022-12-18T05:47:39.464Z,4.43
2022-12-18T05:50:09.019Z,5.25
2022-12-18T05:52:37.059Z,3.83
2022-12-18T05:55:05.443Z,7.68
2022-12-18T05:57:34.739Z,5.22
2022-12-18T06:00:02.623Z,5.10
2022-12-18T06:02:30.608Z,4.13
2022-12-18T06:04:58.493Z,5.43
2022-12-18T06:07:26.407Z,3.63
2022-12-18T06:09:54.332Z,3.95
2022-12-18T06:12:22.244Z,5.47
2022-12-18T06:14:51.534Z,4.32
2022-12-18T06:17:19.505Z,3.28
2022-12-18T06:19:47.393Z,5.50
2022-12-18T06:22:15.300Z,6.45
2022-12-18T06:24:43.204Z,4.25
2022-12-18T06:27:11.132Z,5.65
2022-12-18T06:29:39.045Z,2.65
2022-12-18T06:32:08.554Z,3.72
2022-12-18T06:34:36.531Z,5.25
2022-12-18T06:37:04.440Z,6.68
2022-12-18T06:39:32.369Z,6.05
2022-12-18T06:42:00.276Z,3.88
2022-12-18T06:44:28.192Z,4.53
2022-12-18T06:46:56.093Z,8.07
2022-12-18T06:49:30.316Z,4.75
2022-12-18T06:51:58.692Z,4.63
2022-12-18T06:54:26.645Z,4.85
2022-12-18T06:56:57.173Z,7.25
2022-12-18T06:59:25.111Z,4.00
2022-12-18T07:01:54.027Z,5.15
2022-12-18T07:04:22.126Z,8.15
2022-12-18T07:06:51.349Z,9.38
2022-12-18T07:09:19.241Z,5.38
2022-12-18T07:11:47.121Z,7.40
2022-12-18T07:14:15.032Z,8.23
2022-12-18T07:16:43.057Z,7.10
2022-12-18T07:19:11.020Z,14.48
2022-12-18T07:21:38.913Z,8.02
2022-12-18T07:24:09.423Z,11.98
2022-12-18T07:26:37.359Z,5.15
2022-12-18T07:29:05.311Z,6.40
2022-12-18T07:31:33.253Z,5.93
2022-12-18T07:34:01.301Z,5.13
2022-12-18T07:36:29.244Z,6.38
2022-12-18T07:38:57.201Z,12.75
2022-12-18T07:41:26.482Z,6.25
2022-12-18T07:43:54.522Z,9.60
2022-12-18T07:46:22.543Z,8.85
2022-12-18T07:48:50.617Z,12.65
2022-12-18T07:51:19.153Z,6.35
2022-12-18T07:53:49.618Z,11.05
2022-12-18T07:56:29.454Z,21.92
2022-12-18T07:58:59.883Z,13.85
2022-12-18T08:01:27.964Z,15.07
2022-12-18T08:03:56.106Z,13.90
2022-12-18T08:06:24.759Z,22.65
2022-12-18T08:08:54.418Z,28.42
2022-12-18T08:11:22.538Z,28.38
2022-12-18T08:13:50.657Z,24.08
2022-12-18T08:16:20.738Z,30.45
2022-12-18T08:18:49.650Z,50.92
2022-12-18T08:21:19.125Z,33.15
2022-12-18T08:23:49.254Z,19.52
2022-12-18T08:26:19.499Z,16.33
2022-12-18T08:28:48.820Z,10.45
2022-12-18T08:31:19.057Z,16.25
2022-12-18T08:33:47.088Z,14.43
2022-12-18T08:36:15.074Z,18.10
2022-12-18T08:38:42.984Z,13.25
2022-12-18T08:41:13.632Z,31.48
2022-12-18T08:43:58.937Z,28.77
2022-12-18T08:46:29.698Z,13.85
2022-12-18T08:48:57.899Z,12.00
2022-12-18T08:51:25.881Z,11.75
2022-12-18T08:53:53.750Z,10.88
2022-12-18T08:56:21.631Z,13.57
2022-12-18T08:58:49.563Z,10.95
2022-12-18T09:01:17.527Z,12.20
2022-12-18T09:03:49.470Z,8.23
2022-12-18T09:06:18.426Z,9.27
2022-12-18T09:08:49.735Z,9.57
2022-12-18T09:11:21.682Z,11.93
2022-12-18T09:13:49.576Z,13.20
2022-12-18T09:16:17.717Z,23.30
2022-12-18T09:18:47.193Z,17.95
2022-12-18T09:21:16.656Z,16.73
2022-12-18T09:23:44.843Z,14.20
2022-12-18T09:26:12.846Z,18.83
2022-12-18T09:28:41.009Z,11.03
2022-12-18T09:31:10.173Z,12.67
2022-12-18T09:33:38.197Z,11.20
2022-12-18T09:36:09.470Z,16.13
2022-12-18T09:38:37.662Z,9.33
2022-12-18T09:41:11.016Z,162.70
2022-12-18T09:43:45.584Z,17.23
2022-12-18T09:46:18.521Z,21.30
2022-12-18T09:48:49.562Z,15.20
2022-12-18T09:51:21.079Z,14.20
2022-12-18T09:53:53.996Z,12.33
2022-12-18T09:56:23.915Z,22.17
2022-12-18T09:58:57.620Z,12.73
2022-12-18T10:01:31.973Z,12.33
2022-12-18T10:04:10.413Z,12.83
2022-12-18T10:06:43.484Z,14.23
2022-12-18T10:09:20.255Z,9.43
2022-12-18T10:11:54.799Z,26.67
2022-12-18T10:14:27.507Z,13.70
2022-12-18T10:17:02.842Z,13.77
2022-12-18T10:19:41.905Z,10.90
2022-12-18T10:22:23.695Z,16.03
2022-12-18T10:24:57.652Z,11.37
2022-12-18T10:27:28.624Z,9.43
2022-12-18T10:29:56.628Z,10.47
2022-12-18T10:32:26.132Z,9.50
2022-12-18T10:35:00.086Z,12.27
2022-12-18T10:37:31.707Z,10.50
2022-12-18T10:40:18.252Z,10.33
2022-12-18T10:42:52.305Z,15.00
2022-12-18T10:45:21.036Z,23.27
2022-12-18T10:47:52.283Z,22.83
2022-12-18T10:51:01.786Z,22.50
2022-12-18T10:53:24.549Z,27.60
2022-12-18T10:55:54.668Z,18.47
2022-12-18T10:58:26.859Z,14.70
2022-12-18T11:01:21.217Z,13.23
2022-12-18T11:04:02.666Z,17.43
2022-12-18T11:06:33.972Z,14.23
2022-12-18T11:09:13.180Z,16.00
2022-12-18T11:11:43.244Z,15.73
2022-12-18T11:14:17.651Z,21.07
2022-12-18T11:17:23.860Z,19.87
2022-12-18T11:19:37.481Z,19.77
2022-12-18T11:22:20.972Z,25.10
2022-12-18T11:25:22.816Z,37.53
2022-12-18T11:27:49.895Z,27.17
2022-12-18T11:30:24.148Z,68.93
2022-12-18T11:32:53.406Z,18.20
2022-12-18T11:35:24.138Z,18.80
2022-12-18T11:37:58.575Z,17.67
2022-12-18T11:40:35.403Z,15.23
2022-12-18T11:43:11.992Z,21.43
2022-12-18T11:45:43.537Z,15.30
2022-12-18T11:48:17.077Z,18.97
2022-12-18T11:50:50.156Z,17.10
2022-12-18T11:53:18.346Z,14.90
2022-12-18T11:55:54.950Z,18.33
2022-12-18T11:58:31.894Z,16.70
2022-12-18T12:01:15.894Z,17.87
2022-12-18T12:04:05.291Z,13.87
2022-12-18T12:06:36.748Z,18.00
2022-12-18T12:09:11.362Z,22.77
2022-12-18T12:11:51.227Z,28.87
2022-12-18T12:14:29.292Z,18.50
2022-12-18T12:17:00.563Z,24.10
2022-12-18T12:19:36.920Z,32.07
2022-12-18T12:22:11.287Z,22.47
2022-12-18T12:24:49.391Z,19.83
2022-12-18T12:27:23.466Z,17.80
2022-12-18T12:30:00.466Z,18.20
2022-12-18T12:32:42.751Z,18.37
2022-12-18T12:35:19.086Z,18.53
2022-12-18T12:37:54.626Z,17.17
2022-12-18T12:43:21.757Z,27.37
2022-12-18T12:45:52.664Z,19.97
2022-12-18T12:48:29.891Z,24.33
2022-12-18T12:50:59.894Z,17.07
2022-12-18T12:53:32.986Z,22.97
2022-12-18T12:56:01.026Z,23.00
2022-12-18T12:58:35.907Z,22.40
2022-12-18T13:01:11.636Z,19.30
2022-12-18T13:03:48.195Z,16.63
2022-12-18T13:06:24.385Z,16.27
2022-12-18T13:08:57.878Z,20.00
2022-12-18T13:11:52.554Z,20.60
2022-12-18T13:14:29.573Z,30.10
2022-12-18T13:17:32.001Z,34.10
2022-12-18T13:20:11.699Z,25.70
2022-12-18T13:22:42.864Z,28.20
2022-12-18T13:25:34.716Z,28.07
2022-12-18T13:28:14.225Z,24.83
2022-12-18T13:30:59.447Z,22.93
2022-12-18T13:36:39.298Z,20.92
2022-12-18T13:39:34.246Z,21.07
2022-12-18T13:43:05.719Z,20.80
2022-12-18T13:45:43.735Z,55.27
2022-12-18T13:48:19.698Z,28.47
2022-12-18T13:51:01.462Z,34.40
2022-12-18T13:53:32.973Z,30.93
2022-12-18T13:56:00.964Z,38.53
2022-12-18T13:58:28.998Z,25.08
2022-12-18T14:00:57.685Z,22.80
2022-12-18T14:03:28.711Z,20.90
2022-12-18T14:06:01.006Z,23.58
2022-12-18T14:08:35.067Z,20.33
2022-12-18T14:11:03.597Z,25.73
2022-12-18T14:13:35.133Z,24.05
2022-12-18T14:16:05.127Z,30.77
2022-12-18T14:18:41.546Z,33.00
2022-12-18T14:21:20.061Z,43.25
2022-12-18T14:23:48.149Z,46.30
2022-12-18T14:26:26.358Z,43.90
2022-12-18T14:28:54.899Z,24.77
2022-12-18T14:31:25.050Z,26.38
2022-12-18T14:33:55.119Z,31.48
2022-12-18T14:36:25.059Z,26.98
2022-12-18T14:38:54.743Z,27.73
2022-12-18T14:41:23.804Z,25.00
2022-12-18T14:43:53.325Z,25.40
2022-12-18T14:46:35.130Z,24.95
2022-12-18T14:49:06.724Z,27.10
2022-12-18T14:51:35.789Z,25.38
2022-12-18T14:54:05.622Z,25.50
2022-12-18T14:56:34.643Z,28.58
2022-12-18T14:59:04.366Z,24.95
2022-12-18T15:01:35.577Z,24.50
2022-12-18T15:04:05.926Z,30.85
2022-12-18T15:06:35.850Z,24.95
2022-12-18T15:09:05.865Z,25.63
2022-12-18T15:11:46.982Z,27.88
2022-12-18T15:14:35.775Z,28.90
2022-12-18T15:17:06.129Z,26.10
2022-12-18T15:19:39.725Z,23.80
2022-12-18T15:22:20.375Z,25.63
2022-12-18T15:24:50.334Z,21.80
2022-12-18T15:27:34.391Z,32.97
2022-12-18T15:30:19.040Z,25.40
2022-12-18T15:32:47.561Z,30.45
2022-12-18T15:35:22.133Z,28.27
2022-12-18T15:37:51.055Z,27.92
2022-12-18T15:40:21.437Z,28.65
2022-12-18T15:43:07.816Z,24.63
2022-12-18T15:45:36.276Z,26.38
2022-12-18T15:48:07.479Z,33.22
2022-12-18T15:50:36.790Z,30.75
2022-12-18T15:53:04.779Z,34.67
2022-12-18T15:55:53.337Z,27.40
2022-12-18T15:58:23.199Z,29.60
2022-12-18T16:00:51.097Z,34.30
2022-12-18T16:03:19.036Z,33.78
2022-12-18T16:05:48.371Z,34.80
2022-12-18T16:08:16.239Z,35.38
2022-12-18T16:10:44.225Z,31.17
2022-12-18T16:13:12.432Z,30.35
2022-12-18T16:15:40.516Z,33.05
2022-12-18T16:18:08.711Z,41.63
2022-12-18T16:20:36.646Z,30.77
2022-12-18T16:23:05.994Z,36.72
2022-12-18T16:25:34.246Z,38.05
2022-12-18T16:28:02.143Z,34.45
2022-12-18T16:30:35.796Z,31.70
2022-12-18T16:33:10.906Z,30.85
2022-12-18T16:35:43.214Z,27.85
2022-12-18T16:38:12.560Z,32.88
2022-12-18T16:41:01.879Z,30.58
2022-12-18T16:43:29.841Z,28.65
2022-12-18T16:45:58.523Z,35.28
2022-12-18T16:48:31.227Z,35.00
2022-12-18T16:51:03.590Z,29.67
2022-12-18T16:53:34.331Z,32.22
2022-12-18T16:56:03.107Z,37.08
2022-12-18T16:58:33.040Z,35.40
2022-12-18T17:01:01.451Z,33.60
2022-12-18T17:03:30.096Z,28.85
2022-12-18T17:06:04.128Z,30.88
2022-12-18T17:08:33.486Z,26.70
2022-12-18T17:11:06.579Z,30.42
2022-12-18T17:13:34.991Z,28.33
2022-12-18T17:16:07.970Z,24.65
2022-12-18T17:18:37.427Z,26.60
2022-12-18T17:21:07.503Z,26.98
2022-12-18T17:23:45.297Z,26.17
2022-12-18T17:26:14.283Z,29.60
2022-12-18T17:28:45.188Z,24.98
2022-12-18T17:31:14.885Z,30.77
2022-12-18T17:33:44.550Z,24.80
2022-12-18T17:36:15.394Z,30.13
2022-12-18T17:38:46.370Z,33.33
2022-12-18T17:41:15.581Z,35.10
2022-12-18T17:43:50.948Z,27.63
2022-12-18T17:46:19.845Z,31.90
2022-12-18T17:48:51.329Z,30.70
2022-12-18T17:51:20.580Z,32.43
2022-12-18T17:54:01.392Z,26.37
2022-12-18T17:56:30.089Z,29.50
2022-12-18T17:58:59.331Z,24.23
2022-12-18T18:01:27.727Z,32.70
2022-12-18T18:03:57.023Z,23.87
2022-12-18T18:06:25.473Z,23.73
2022-12-18T18:08:55.214Z,28.23
2022-12-18T18:11:42.070Z,24.70
2022-12-18T18:14:14.535Z,34.23
2022-12-18T18:16:44.211Z,32.03
2022-12-18T18:19:13.938Z,27.33
2022-12-18T18:21:43.154Z,30.17
2022-12-18T18:24:15.106Z,30.08
2022-12-18T18:26:43.067Z,34.50
2022-12-18T18:29:14.676Z,26.93
2022-12-18T18:31:43.019Z,26.33
2022-12-18T18:34:15.599Z,30.73
2022-12-18T18:36:43.650Z,34.00
2022-12-18T18:39:12.918Z,28.10
2022-12-18T18:41:40.870Z,31.70
2022-12-18T18:44:11.339Z,31.70
2022-12-18T18:46:39.248Z,29.37
2022-12-18T18:49:07.976Z,29.53
2022-12-18T18:51:35.870Z,31.43
2022-12-18T18:54:04.061Z,36.57
2022-12-18T18:56:56.197Z,36.07
2022-12-18T18:59:24.990Z,34.20
2022-12-18T19:01:59.963Z,32.47
2022-12-18T19:04:32.718Z,33.10
2022-12-18T19:07:00.605Z,35.40
2022-12-18T19:09:28.745Z,34.33
2022-12-18T19:12:27.424Z,37.57
2022-12-18T19:14:55.416Z,39.05
2022-12-18T19:17:28.071Z,45.58
2022-12-18T19:19:57.690Z,45.42
2022-12-18T19:22:25.612Z,40.35
2022-12-18T19:24:53.513Z,36.00
2022-12-18T19:27:22.825Z,41.73
2022-12-18T19:29:50.801Z,40.20
2022-12-18T19:32:18.759Z,32.70
2022-12-18T19:34:47.505Z,39.20
2022-12-18T19:37:16.250Z,33.58
2022-12-18T19:39:44.277Z,42.50
2022-12-18T19:42:12.201Z,37.70
2022-12-18T19:44:42.695Z,36.43
2022-12-18T19:47:10.621Z,33.67
2022-12-18T19:49:38.795Z,49.37
2022-12-18T19:52:06.875Z,43.30
2022-12-18T19:54:34.813Z,36.08
2022-12-18T19:57:02.705Z,38.10
2022-12-18T19:59:30.579Z,39.33
2022-12-18T20:01:59.972Z,37.90
2022-12-18T20:04:28.091Z,40.60
2022-12-18T20:06:56.275Z,36.80
2022-12-18T20:09:24.359Z,45.45
2022-12-18T20:11:53.054Z,50.53
2022-12-18T20:14:23.512Z,40.60
2022-12-18T20:16:52.605Z,46.80
2022-12-18T20:19:22.948Z,39.03
2022-12-18T20:21:51.149Z,47.80
2022-12-18T20:24:19.051Z,38.50
2022-12-18T20:26:47.083Z,37.13
2022-12-18T20:29:15.008Z,38.60
2022-12-18T20:31:43.024Z,62.33
2022-12-18T20:34:11.037Z,44.53
2022-12-18T20:36:41.092Z,37.70
2022-12-18T20:39:10.888Z,39.30
2022-12-18T20:41:40.168Z,47.73
2022-12-18T20:44:21.475Z,40.80
2022-12-18T20:46:52.016Z,42.90
2022-12-18T20:49:19.943Z,42.38
2022-12-18T20:51:52.612Z,41.40
2022-12-18T20:54:21.007Z,44.77
2022-12-18T20:56:48.968Z,70.30
2022-12-18T20:59:16.912Z,45.65
2022-12-18T21:01:46.041Z,46.27
2022-12-18T21:04:18.369Z,40.20
2022-12-18T21:06:51.453Z,34.42
2022-12-18T21:09:22.512Z,48.33
2022-12-18T21:12:08.340Z,47.80
2022-12-18T21:14:38.277Z,35.67
2022-12-18T21:17:06.460Z,39.10
2022-12-18T21:19:34.365Z,40.63
2022-12-18T21:22:03.281Z,38.20
2022-12-18T21:24:32.883Z,39.53
2022-12-18T21:27:01.846Z,44.00
2022-12-18T21:29:29.891Z,48.37
2022-12-18T21:31:57.958Z,43.40
2022-12-18T21:34:28.212Z,38.93
2022-12-18T21:36:57.815Z,43.27
2022-12-18T21:39:26.465Z,38.80
2022-12-18T21:42:13.739Z,38.10
2022-12-18T21:44:42.596Z,38.43
2022-12-18T21:47:20.904Z,41.97
2022-12-18T21:49:51.795Z,42.30
2022-12-18T21:52:20.006Z,42.30
2022-12-18T21:54:50.073Z,41.40
2022-12-18T21:57:19.781Z,41.40
2022-12-18T21:59:48.802Z,39.03
2022-12-18T22:02:17.895Z,38.13
2022-12-18T22:04:46.990Z,41.40
2022-12-18T22:07:16.035Z,41.83
2022-12-18T22:09:44.051Z,36.80
2022-12-18T22:12:33.998Z,39.13
2022-12-18T22:15:04.430Z,37.60
2022-12-18T22:17:32.364Z,41.30
2022-12-18T22:20:00.308Z,39.00
2022-12-18T22:22:28.445Z,41.73
2022-12-18T22:24:56.352Z,36.30
2022-12-18T22:27:24.240Z,36.83
2022-12-18T22:30:06.162Z,43.75
2022-12-18T22:32:36.516Z,39.10
2022-12-18T22:35:12.923Z,44.27
2022-12-18T22:37:43.584Z,41.27
2022-12-18T22:40:14.860Z,43.80
2022-12-18T22:42:44.965Z,37.80
2022-12-18T22:45:14.324Z,36.37
2022-12-18T22:47:43.608Z,40.67
2022-12-18T22:50:13.863Z,37.47
2022-12-18T22:52:41.880Z,35.13
2022-12-18T22:55:10.119Z,37.50
2022-12-18T22:57:38.043Z,32.17
2022-12-18T23:00:09.552Z,33.70
2022-12-18T23:02:37.587Z,32.10
2022-12-18T23:05:07.620Z,43.43
2022-12-18T23:07:35.532Z,51.53
2022-12-18T23:10:03.446Z,46.53
2022-12-18T23:12:31.310Z,41.13
2022-12-18T23:15:01.235Z,34.40
2022-12-18T23:17:29.887Z,34.03
2022-12-18T23:19:57.755Z,40.00
2022-12-18T23:22:27.622Z,40.53
2022-12-18T23:24:55.499Z,37.90
2022-12-18T23:27:23.553Z,38.93
2022-12-18T23:29:51.436Z,37.57
2022-12-18T23:32:20.604Z,36.80
2022-12-18T23:34:48.493Z,32.50
2022-12-18T23:37:35.348Z,37.77
2022-12-18T23:40:06.549Z,38.30
2022-12-18T23:42:34.486Z,33.73
2022-12-18T23:45:04.502Z,36.53
2022-12-18T23:47:46.334Z,34.43
2022-12-18T23:50:18.871Z,34.30
2022-12-18T23:52:50.076Z,35.87
2022-12-18T23:55:19.358Z,33.23
2022-12-18T23:57:47.295Z,34.73
